Time;durP1;ratioP1;P1;durP2;ratioP2;P2;SDS_P1;SDS_P2;PMS_P1;PMS_P2;Temp;Humidity;BMP_temperature;BMP_pressure;BME280_temperature;BME280_humidity;BME280_pressure;Samples;Min_cycle;Max_cycle;Signal;HPM_P1;HPM_P2
2022/07/23 00:01:16;;;;;;;7.78;4.25;;;14.10;99.90;;;;;;5001200;28;20038;-87
2022/07/23 00:03:42;;;;;;;5.57;3.10;;;14.00;99.90;;;;;;4987484;28;20137;-87
2022/07/23 00:06:08;;;;;;;7.80;3.35;;;14.10;99.90;;;;;;5003140;28;20107;-87
2022/07/23 00:08:33;;;;;;;4.45;3.10;;;14.00;99.90;;;;;;4989097;28;21522;-87
2022/07/23 00:11:00;;;;;;;4.90;2.65;;;14.00;99.90;;;;;;5001266;28;20038;-87
2022/07/23 00:13:26;;;;;;;5.32;3.22;;;14.00;99.90;;;;;;4984812;28;20052;-87
2022/07/23 00:15:52;;;;;;;8.20;2.85;;;13.90;99.90;;;;;;4984162;28;20037;-87
2022/07/23 00:18:18;;;;;;;4.30;2.90;;;13.90;99.90;;;;;;5021262;28;20498;-87
2022/07/23 00:20:46;;;;;;;3.95;2.90;;;13.80;99.90;;;;;;4987905;28;20045;-87
2022/07/23 00:23:12;;;;;;;3.63;3.05;;;13.90;99.90;;;;;;5004183;28;20038;-87
2022/07/23 00:25:38;;;;;;;7.55;3.22;;;13.80;99.90;;;;;;4997289;28;20132;-87
2022/07/23 00:28:04;;;;;;;4.22;2.80;;;13.80;99.90;;;;;;5006453;28;20042;-87
2022/07/23 00:30:31;;;;;;;6.15;3.17;;;13.80;99.90;;;;;;5024160;28;20037;-87
2022/07/23 00:32:59;;;;;;;5.70;3.30;;;13.80;99.90;;;;;;5024342;28;20048;-87
2022/07/23 00:35:26;;;;;;;4.13;3.10;;;13.80;99.90;;;;;;5026574;28;20053;-87
2022/07/23 00:37:54;;;;;;;5.25;2.60;;;13.70;99.90;;;;;;5023960;28;20044;-87
2022/07/23 00:40:20;;;;;;;3.45;2.30;;;13.70;99.90;;;;;;5025235;28;20044;-86
2022/07/23 00:42:45;;;;;;;4.75;2.83;;;13.70;99.90;;;;;;4989921;28;20045;-87
2022/07/23 00:45:12;;;;;;;5.38;3.05;;;13.70;99.90;;;;;;4991507;28;20501;-87
2022/07/23 00:47:38;;;;;;;4.43;2.72;;;13.70;99.90;;;;;;5023779;28;20040;-87
2022/07/23 00:50:06;;;;;;;6.22;3.00;;;13.70;99.90;;;;;;5027791;28;20040;-87
2022/07/23 00:52:32;;;;;;;4.53;2.90;;;13.70;99.90;;;;;;5008964;28;20041;-86
2022/07/23 00:54:58;;;;;;;5.28;3.25;;;13.60;99.90;;;;;;5042558;28;20037;-87
2022/07/23 00:57:25;;;;;;;5.82;2.90;;;13.60;99.90;;;;;;5021034;28;20552;-87
2022/07/23 00:59:50;;;;;;;3.72;3.00;;;13.50;99.90;;;;;;5010115;28;20045;-87
2022/07/23 01:02:16;;;;;;;5.43;2.78;;;13.50;99.90;;;;;;5023012;28;20941;-87
2022/07/23 01:04:42;;;;;;;4.28;3.03;;;13.50;99.90;;;;;;5021639;28;20033;-87
2022/07/23 01:07:08;;;;;;;7.18;3.50;;;13.40;99.90;;;;;;5024079;28;20044;-87
2022/07/23 01:09:33;;;;;;;5.07;3.20;;;13.40;99.90;;;;;;5027421;28;20045;-87
2022/07/23 01:12:00;;;;;;;4.75;3.80;;;13.40;99.90;;;;;;4989202;28;20044;-87
2022/07/23 01:14:26;;;;;;;6.60;3.60;;;13.30;99.90;;;;;;5023519;28;20045;-87
2022/07/23 01:16:52;;;;;;;7.47;4.35;;;13.30;99.90;;;;;;5026111;28;20033;-87
2022/07/23 01:19:18;;;;;;;9.60;4.18;;;13.30;99.90;;;;;;4985756;28;20059;-87
2022/07/23 01:21:49;;;;;;;7.72;3.70;;;13.30;99.90;;;;;;5022861;28;20036;-87
2022/07/23 01:24:15;;;;;;;5.80;4.43;;;13.30;99.90;;;;;;5025201;28;20199;-87
2022/07/23 01:26:43;;;;;;;5.82;3.70;;;13.30;99.90;;;;;;5021106;28;20057;-87
2022/07/23 01:29:09;;;;;;;5.88;4.15;;;13.30;99.90;;;;;;5026326;28;20111;-87
2022/07/23 01:31:35;;;;;;;8.27;4.30;;;13.30;99.90;;;;;;5020700;28;20423;-87
2022/07/23 01:34:01;;;;;;;5.30;4.50;;;13.40;99.90;;;;;;4988178;28;20252;-87
2022/07/23 01:36:27;;;;;;;6.78;4.45;;;13.30;99.90;;;;;;5017032;28;20119;-87
2022/07/23 01:38:52;;;;;;;9.02;4.88;;;13.40;99.90;;;;;;5019376;28;20124;-87
2022/07/23 01:41:18;;;;;;;14.13;4.78;;;13.40;99.90;;;;;;5009489;28;20037;-87
2022/07/23 01:43:44;;;;;;;8.70;4.97;;;13.40;99.90;;;;;;5005516;28;20044;-87
2022/07/23 01:46:10;;;;;;;8.52;4.93;;;13.40;99.90;;;;;;5025643;28;20040;-87
2022/07/23 01:48:36;;;;;;;5.90;4.75;;;13.40;99.90;;;;;;5018553;28;20030;-87
2022/07/23 01:51:02;;;;;;;11.10;5.25;;;13.40;99.90;;;;;;5023101;28;20155;-87
2022/07/23 01:53:30;;;;;;;10.10;5.10;;;13.40;99.90;;;;;;5002697;28;20101;-87
2022/07/23 01:55:57;;;;;;;8.07;4.90;;;13.40;99.90;;;;;;5026138;28;20152;-87
2022/07/23 01:58:23;;;;;;;8.95;4.35;;;13.40;99.90;;;;;;5024011;28;20072;-87
2022/07/23 02:00:48;;;;;;;7.65;4.78;;;13.50;99.90;;;;;;5025365;28;20064;-87
2022/07/23 02:03:14;;;;;;;7.10;5.03;;;13.40;99.90;;;;;;5005083;28;20038;-87
2022/07/23 02:05:40;;;;;;;6.95;4.28;;;13.30;99.90;;;;;;5008907;28;20033;-87
2022/07/23 02:08:05;;;;;;;5.53;4.50;;;13.30;99.90;;;;;;5022864;28;20124;-87
2022/07/23 02:10:31;;;;;;;7.95;4.93;;;13.30;99.90;;;;;;5010358;28;20402;-87
2022/07/23 02:12:57;;;;;;;8.27;5.22;;;13.30;99.90;;;;;;5008297;28;20041;-87
2022/07/23 02:15:23;;;;;;;7.20;4.60;;;13.30;99.90;;;;;;5024321;28;20036;-87
2022/07/23 02:17:49;;;;;;;6.82;4.60;;;13.20;99.90;;;;;;5010415;28;20589;-87
2022/07/23 02:20:14;;;;;;;8.18;4.47;;;13.20;99.90;;;;;;5023371;28;20052;-87
2022/07/23 02:22:40;;;;;;;9.60;4.70;;;13.10;99.90;;;;;;5020235;28;20029;-87
2022/07/23 02:25:08;;;;;;;6.90;5.00;;;13.00;99.90;;;;;;5019249;28;20083;-87
2022/07/23 02:27:34;;;;;;;7.85;4.60;;;13.00;99.90;;;;;;5021109;28;20160;-87
2022/07/23 02:30:00;;;;;;;10.82;5.10;;;13.00;99.90;;;;;;5039216;28;20116;-87
2022/07/23 02:32:27;;;;;;;8.90;4.82;;;12.90;99.90;;;;;;5020732;28;20073;-88
2022/07/23 02:34:52;;;;;;;8.02;4.68;;;13.00;99.90;;;;;;5009473;28;20037;-88
2022/07/23 02:37:18;;;;;;;8.73;4.45;;;12.90;99.90;;;;;;5042803;28;20044;-87
2022/07/23 02:39:44;;;;;;;5.38;4.03;;;12.90;99.90;;;;;;5042941;28;20044;-87
2022/07/23 02:42:10;;;;;;;8.23;4.80;;;12.80;99.90;;;;;;5024698;28;20045;-87
2022/07/23 02:44:35;;;;;;;8.07;4.93;;;12.80;99.90;;;;;;5027719;28;20430;-87
2022/07/23 02:47:01;;;;;;;6.20;4.57;;;12.80;99.90;;;;;;5008918;28;20045;-87
2022/07/23 02:49:27;;;;;;;6.72;4.90;;;12.80;99.90;;;;;;5008189;28;20041;-87
2022/07/23 02:51:53;;;;;;;13.60;5.78;;;12.70;99.90;;;;;;5037245;28;20033;-87
2022/07/23 02:54:18;;;;;;;6.50;4.97;;;12.70;99.90;;;;;;5024973;28;20036;-87
2022/07/23 02:56:44;;;;;;;9.95;5.03;;;12.60;99.90;;;;;;5027675;28;20088;-87
2022/07/23 02:59:10;;;;;;;6.32;4.32;;;12.80;99.90;;;;;;5008397;28;20044;-87
2022/07/23 03:01:36;;;;;;;7.05;4.47;;;12.60;99.90;;;;;;4993658;28;20044;-87
2022/07/23 03:04:02;;;;;;;5.90;4.90;;;12.50;99.90;;;;;;5023495;28;20048;-87
2022/07/23 03:06:27;;;;;;;8.35;4.85;;;12.50;99.90;;;;;;5030377;28;20064;-87
2022/07/23 03:08:53;;;;;;;5.35;4.38;;;12.50;99.90;;;;;;5042682;28;20037;-87
2022/07/23 03:11:19;;;;;;;6.53;4.63;;;12.40;99.90;;;;;;4996136;28;20036;-87
2022/07/23 03:13:45;;;;;;;7.35;4.32;;;12.40;99.90;;;;;;5024579;28;20120;-87
2022/07/23 03:16:11;;;;;;;7.82;5.32;;;12.40;99.90;;;;;;5028698;28;20497;-87
2022/07/23 03:18:37;;;;;;;6.63;4.93;;;12.40;99.90;;;;;;5027458;28;20604;-87
2022/07/23 03:21:02;;;;;;;9.80;4.55;;;12.30;99.90;;;;;;5010828;28;20445;-87
2022/07/23 03:23:28;;;;;;;8.75;5.10;;;12.30;99.90;;;;;;5029264;28;20090;-87
2022/07/23 03:25:54;;;;;;;7.20;4.78;;;12.30;99.90;;;;;;5016969;28;20473;-87
2022/07/23 03:28:20;;;;;;;6.10;4.50;;;12.30;99.90;;;;;;4972226;28;20072;-87
2022/07/23 03:30:46;;;;;;;7.78;4.82;;;12.30;99.90;;;;;;5002341;28;20063;-87
2022/07/23 03:33:13;;;;;;;7.50;4.90;;;12.30;99.90;;;;;;5004999;28;20121;-87
2022/07/23 03:35:39;;;;;;;7.18;4.57;;;12.30;99.90;;;;;;5005121;28;20037;-87
2022/07/23 03:38:05;;;;;;;7.95;4.25;;;12.30;99.90;;;;;;4988424;28;20060;-88
2022/07/23 03:40:30;;;;;;;5.88;4.38;;;12.30;99.90;;;;;;4990270;28;20048;-87
2022/07/23 03:42:56;;;;;;;6.53;4.63;;;12.60;99.90;;;;;;4999829;28;20049;-87
2022/07/23 03:45:22;;;;;;;7.18;4.53;;;12.20;99.90;;;;;;4963502;28;20041;-87
2022/07/23 03:47:47;;;;;;;7.65;4.82;;;12.20;99.90;;;;;;5005505;28;20113;-87
2022/07/23 03:50:13;;;;;;;6.88;5.32;;;12.20;99.90;;;;;;4985877;28;20065;-87
2022/07/23 03:52:39;;;;;;;8.30;4.55;;;12.20;99.90;;;;;;5008957;28;20046;-87
2022/07/23 03:55:05;;;;;;;6.88;5.03;;;12.20;99.90;;;;;;5004161;28;20054;-87
2022/07/23 03:57:32;;;;;;;11.27;5.47;;;12.20;99.90;;;;;;5023393;28;20130;-87
2022/07/23 03:59:57;;;;;;;10.77;5.57;;;12.20;99.90;;;;;;5005109;28;20046;-87
2022/07/23 04:02:23;;;;;;;9.45;4.90;;;12.10;99.90;;;;;;4989435;28;20048;-87
2022/07/23 04:04:49;;;;;;;7.40;5.25;;;12.10;99.90;;;;;;5001319;28;20120;-88
2022/07/23 04:07:17;;;;;;;11.27;5.13;;;12.10;99.90;;;;;;5009032;28;20091;-88
2022/07/23 04:09:43;;;;;;;8.13;5.32;;;12.10;99.90;;;;;;5007069;28;20038;-88
2022/07/23 04:12:09;;;;;;;8.68;5.35;;;12.10;99.90;;;;;;5005486;28;20107;-87
2022/07/23 04:14:35;;;;;;;10.05;5.35;;;12.10;99.90;;;;;;4975600;28;20077;-87
2022/07/23 04:17:01;;;;;;;7.53;5.15;;;12.10;99.90;;;;;;4988874;28;20045;-87
2022/07/23 04:19:26;;;;;;;10.13;5.78;;;12.10;99.90;;;;;;4999598;28;20044;-87
2022/07/23 04:21:52;;;;;;;9.63;5.80;;;12.10;99.90;;;;;;5007142;28;20041;-87
2022/07/23 04:24:18;;;;;;;6.25;4.97;;;12.10;99.90;;;;;;5004878;28;20061;-87
2022/07/23 04:26:45;;;;;;;7.72;5.60;;;12.20;99.90;;;;;;5005527;28;20129;-87
2022/07/23 04:29:11;;;;;;;10.50;5.57;;;12.20;99.90;;;;;;5022043;28;20064;-87
2022/07/23 04:31:36;;;;;;;9.15;6.00;;;12.10;99.90;;;;;;5025886;28;20037;-87
2022/07/23 04:34:02;;;;;;;10.73;5.70;;;12.20;99.90;;;;;;5008132;28;20040;-88
2022/07/23 04:36:28;;;;;;;8.93;5.55;;;12.20;99.90;;;;;;5002170;28;20045;-87
2022/07/23 04:38:54;;;;;;;10.48;5.28;;;12.20;99.90;;;;;;5025581;28;20102;-87
2022/07/23 04:41:20;;;;;;;7.70;4.75;;;12.20;99.90;;;;;;5023019;28;20051;-87
2022/07/23 04:43:46;;;;;;;9.30;5.68;;;12.20;99.90;;;;;;5024836;28;20029;-87
2022/07/23 04:46:12;;;;;;;10.02;5.70;;;12.20;99.90;;;;;;5008764;28;20041;-87
2022/07/23 04:48:37;;;;;;;10.95;5.97;;;12.30;99.90;;;;;;5025043;28;20067;-87
2022/07/23 04:51:03;;;;;;;11.82;5.68;;;12.20;99.90;;;;;;5022235;28;20037;-88
2022/07/23 04:53:29;;;;;;;9.80;5.68;;;12.20;99.90;;;;;;5027306;28;20041;-87
2022/07/23 04:55:55;;;;;;;8.65;5.53;;;12.30;99.90;;;;;;5022615;28;20079;-87
2022/07/23 04:58:21;;;;;;;9.13;5.70;;;12.30;99.90;;;;;;4990792;28;20045;-87
2022/07/23 05:00:46;;;;;;;9.05;5.15;;;12.30;99.90;;;;;;5022195;28;20040;-88
2022/07/23 05:03:12;;;;;;;8.02;5.47;;;12.30;99.90;;;;;;5027469;28;20037;-87
2022/07/23 05:05:38;;;;;;;10.15;6.45;;;12.50;99.90;;;;;;5002024;28;20029;-88
2022/07/23 05:08:04;;;;;;;10.32;5.47;;;12.40;99.90;;;;;;5020714;28;20109;-88
2022/07/23 05:10:30;;;;;;;9.43;5.38;;;12.40;99.90;;;;;;5003103;28;20148;-88
2022/07/23 05:12:55;;;;;;;9.20;5.20;;;12.40;99.90;;;;;;5041817;28;20445;-87
2022/07/23 05:15:21;;;;;;;7.20;5.18;;;12.50;99.90;;;;;;5021391;28;20488;-87
2022/07/23 05:17:47;;;;;;;10.27;5.30;;;12.50;99.90;;;;;;5009479;28;20059;-87
2022/07/23 05:20:13;;;;;;;9.23;5.72;;;12.50;99.90;;;;;;5007567;28;20099;-88
2022/07/23 05:22:39;;;;;;;7.38;5.28;;;12.60;99.90;;;;;;5010462;28;20048;-88
2022/07/23 05:25:05;;;;;;;7.82;5.03;;;12.50;99.90;;;;;;5039967;28;20057;-87
2022/07/23 05:27:31;;;;;;;6.82;5.00;;;12.60;99.90;;;;;;5023449;28;20053;-88
2022/07/23 05:29:57;;;;;;;10.23;5.60;;;12.70;99.90;;;;;;5002057;28;20435;-88
2022/07/23 05:32:23;;;;;;;11.20;5.78;;;12.70;99.90;;;;;;5009254;28;20045;-88
2022/07/23 05:34:48;;;;;;;10.43;4.53;;;12.80;99.90;;;;;;5023065;28;20118;-89
2022/07/23 05:37:14;;;;;;;9.02;4.82;;;12.80;99.90;;;;;;4986624;28;20093;-87
2022/07/23 05:39:39;;;;;;;9.30;5.03;;;12.80;99.90;;;;;;5022208;28;20068;-88
2022/07/23 05:42:05;;;;;;;6.60;4.53;;;12.90;99.90;;;;;;5004313;28;20120;-88
2022/07/23 05:44:31;;;;;;;8.32;4.18;;;13.00;99.90;;;;;;5024726;28;20038;-88
2022/07/23 05:46:57;;;;;;;5.93;4.13;;;13.00;99.90;;;;;;5007050;28;20040;-88
2022/07/23 05:49:22;;;;;;;10.27;4.40;;;13.10;99.90;;;;;;5009149;28;20040;-88
2022/07/23 05:51:48;;;;;;;6.55;4.28;;;13.10;99.90;;;;;;5023258;28;20037;-88
2022/07/23 05:54:14;;;;;;;6.65;4.25;;;13.20;99.90;;;;;;5027364;28;20037;-88
2022/07/23 05:56:40;;;;;;;9.25;4.35;;;13.30;99.90;;;;;;5019413;28;20055;-88
2022/07/23 05:59:06;;;;;;;12.57;4.60;;;13.30;99.90;;;;;;5021369;28;20043;-88
2022/07/23 06:01:31;;;;;;;8.55;4.88;;;13.40;99.90;;;;;;5008924;28;20033;-88
2022/07/23 06:03:57;;;;;;;9.82;4.78;;;13.40;99.90;;;;;;5023835;28;20509;-88
2022/07/23 06:06:23;;;;;;;7.88;3.58;;;13.50;99.90;;;;;;5020474;28;20166;-88
2022/07/23 06:08:48;;;;;;;9.40;4.65;;;13.60;99.90;;;;;;5021269;28;20040;-89
2022/07/23 06:11:14;;;;;;;7.00;4.53;;;13.60;99.90;;;;;;5038783;28;20033;-88
2022/07/23 06:13:40;;;;;;;7.57;3.88;;;13.80;99.90;;;;;;5025373;28;20083;-88
2022/07/23 06:16:05;;;;;;;7.03;4.07;;;13.80;99.90;;;;;;5022470;28;20403;-89
2022/07/23 06:18:31;;;;;;;6.75;3.80;;;13.90;99.90;;;;;;4998583;28;20053;-89
2022/07/23 06:20:57;;;;;;;7.10;4.40;;;14.00;99.90;;;;;;5004977;28;20039;-89
2022/07/23 06:23:22;;;;;;;9.20;3.90;;;14.00;99.90;;;;;;5025654;28;20630;-88
2022/07/23 06:25:48;;;;;;;7.50;3.78;;;14.10;99.90;;;;;;5024744;28;20057;-89
2022/07/23 06:28:15;;;;;;;5.32;3.47;;;14.20;99.90;;;;;;5022692;28;20037;-88
2022/07/23 06:30:41;;;;;;;6.82;4.15;;;14.30;99.90;;;;;;5024450;28;20036;-88
2022/07/23 06:33:06;;;;;;;6.97;3.30;;;14.30;99.90;;;;;;4997097;28;20075;-89
2022/07/23 06:35:33;;;;;;;6.25;3.20;;;14.40;99.90;;;;;;5027900;28;20043;-88
2022/07/23 06:37:59;;;;;;;4.97;3.20;;;14.50;99.90;;;;;;5000475;28;20037;-88
2022/07/23 06:40:25;;;;;;;7.20;3.15;;;14.50;99.90;;;;;;5023117;28;20151;-88
2022/07/23 06:42:51;;;;;;;5.97;3.15;;;14.60;99.90;;;;;;5012464;28;20044;-88
2022/07/23 06:45:17;;;;;;;6.07;2.78;;;14.60;99.90;;;;;;5022433;28;20067;-88
2022/07/23 06:47:42;;;;;;;5.00;2.65;;;14.70;99.90;;;;;;5002998;28;20045;-88
2022/07/23 06:50:09;;;;;;;3.90;2.58;;;14.80;99.90;;;;;;5023465;28;20479;-88
2022/07/23 06:52:34;;;;;;;6.20;2.58;;;14.90;99.90;;;;;;5000278;28;20770;-89
2022/07/23 06:55:00;;;;;;;4.43;2.70;;;15.00;99.90;;;;;;5026551;28;20037;-88
2022/07/23 06:57:26;;;;;;;8.73;2.88;;;15.10;99.90;;;;;;4984578;28;20041;-87
2022/07/23 06:59:52;;;;;;;7.20;3.33;;;15.10;99.90;;;;;;5023118;28;20047;-88
2022/07/23 07:02:18;;;;;;;7.63;2.65;;;15.20;99.90;;;;;;5013055;28;20622;-88
2022/07/23 07:04:43;;;;;;;5.65;2.33;;;15.30;99.90;;;;;;5004337;28;20044;-88
2022/07/23 07:07:09;;;;;;;3.95;1.60;;;15.40;99.90;;;;;;4998768;28;20092;-88
2022/07/23 07:09:35;;;;;;;5.78;2.08;;;15.60;99.90;;;;;;5006611;28;20033;-88
2022/07/23 07:12:01;;;;;;;2.70;1.70;;;15.70;99.90;;;;;;5017593;28;20086;-85
2022/07/23 07:14:27;;;;;;;2.80;1.77;;;15.80;99.90;;;;;;5023660;28;20122;-80
2022/07/23 07:16:52;;;;;;;4.93;1.80;;;16.10;99.90;;;;;;5010721;28;20482;-80
2022/07/23 07:19:18;;;;;;;7.82;1.90;;;16.30;99.90;;;;;;5032916;28;20083;-80
2022/07/23 07:21:44;;;;;;;4.43;1.85;;;16.40;99.90;;;;;;5030016;28;20112;-80
2022/07/23 07:24:10;;;;;;;3.60;1.77;;;16.50;99.90;;;;;;5024632;28;20126;-81
2022/07/23 07:26:35;;;;;;;3.65;2.05;;;16.50;99.90;;;;;;5014270;28;20090;-79
2022/07/23 07:29:01;;;;;;;3.03;1.98;;;16.60;99.90;;;;;;4992496;28;20030;-79
2022/07/23 07:31:27;;;;;;;2.95;1.80;;;16.70;99.90;;;;;;5005733;28;20050;-79
2022/07/23 07:33:53;;;;;;;2.25;1.60;;;16.80;99.90;;;;;;5013288;28;20403;-80
2022/07/23 07:36:18;;;;;;;12.27;2.35;;;16.90;99.90;;;;;;5029177;28;20069;-79
2022/07/23 07:38:44;;;;;;;4.15;1.80;;;17.00;99.90;;;;;;5010445;28;20527;-79
2022/07/23 07:41:10;;;;;;;3.08;1.50;;;17.10;99.90;;;;;;5028683;28;20046;-79
2022/07/23 07:43:36;;;;;;;3.92;2.00;;;17.20;99.90;;;;;;4991756;28;20064;-79
2022/07/23 07:46:03;;;;;;;5.70;1.75;;;17.30;99.90;;;;;;5012036;28;20061;-79
2022/07/23 07:48:29;;;;;;;1.95;1.48;;;17.30;99.90;;;;;;4994550;28;20042;-79
2022/07/23 07:50:55;;;;;;;2.45;1.40;;;17.30;99.90;;;;;;5017104;28;20137;-80
2022/07/23 07:53:20;;;;;;;4.53;1.80;;;17.50;99.90;;;;;;5014676;28;20045;-79
2022/07/23 07:55:46;;;;;;;4.07;2.88;;;17.60;99.90;;;;;;5018467;28;20030;-79
2022/07/23 07:58:12;;;;;;;5.30;1.63;;;17.60;99.90;;;;;;4994166;28;20034;-79
2022/07/23 08:00:37;;;;;;;3.08;1.85;;;17.70;99.90;;;;;;4996562;28;20065;-79
2022/07/23 08:03:04;;;;;;;5.75;1.30;;;17.90;99.90;;;;;;4994714;28;20113;-79
2022/07/23 08:05:30;;;;;;;1.90;1.70;;;18.10;99.90;;;;;;5011250;28;20038;-79
2022/07/23 08:07:58;;;;;;;5.07;1.60;;;18.30;99.90;;;;;;4995286;28;20034;-80
2022/07/23 08:10:28;;;;;;;3.97;1.70;;;18.50;99.90;;;;;;4996435;28;20033;-87
2022/07/23 08:13:00;;;;;;;3.20;2.00;;;18.30;99.90;;;;;;4993373;28;20030;-86
2022/07/23 08:15:27;;;;;;;;;;;18.10;99.90;;;;;;4998711;28;20125;-87
2022/07/23 08:17:53;;;;;;;1.95;1.40;;;17.90;99.90;;;;;;5010153;28;19922;-87
2022/07/23 08:20:21;;;;;;;3.63;1.20;;;17.90;99.90;;;;;;5011216;28;20080;-87
2022/07/23 08:22:55;;;;;;;2.47;1.33;;;18.00;99.90;;;;;;5009534;28;20124;-87
2022/07/23 08:25:33;;;;;;;2.00;1.40;;;17.90;99.90;;;;;;4994214;28;20050;-87
2022/07/23 08:28:00;;;;;;;2.65;1.52;;;17.70;99.90;;;;;;5026645;28;20049;-87
2022/07/23 08:30:27;;;;;;;3.75;1.42;;;17.60;99.90;;;;;;4994981;28;20048;-87
2022/07/23 08:32:54;;;;;;;2.15;1.30;;;17.70;99.90;;;;;;5007998;28;20112;-88
2022/07/23 08:35:27;;;;;;;1.42;1.33;;;17.90;99.90;;;;;;4994050;28;20054;-87
2022/07/23 08:37:53;;;;;;;1.35;1.25;;;18.10;99.90;;;;;;5027190;28;20069;-87
2022/07/23 08:40:19;;;;;;;2.42;1.27;;;18.30;99.90;;;;;;4995655;28;20076;-87
2022/07/23 08:42:48;;;;;;;3.67;1.50;;;18.30;99.90;;;;;;5010998;28;20074;-88
2022/07/23 08:45:17;;;;;;;2.38;1.48;;;18.40;99.90;;;;;;4994399;28;20038;-87
2022/07/23 08:47:43;;;;;;;1.90;1.00;;;18.50;99.90;;;;;;4994139;28;20037;-87
2022/07/23 08:50:10;;;;;;;1.42;1.08;;;18.70;99.90;;;;;;4991929;28;20041;-88
2022/07/23 08:52:37;;;;;;;2.38;1.58;;;18.70;99.90;;;;;;5009929;28;20081;-87
2022/07/23 08:55:03;;;;;;;2.30;1.13;;;18.60;99.90;;;;;;4992970;28;20710;-87
2022/07/23 08:57:29;;;;;;;1.58;1.13;;;18.50;99.90;;;;;;4993323;28;20042;-88
2022/07/23 08:59:55;;;;;;;3.13;1.20;;;18.30;99.90;;;;;;4994020;28;20083;-88
2022/07/23 09:02:21;;;;;;;1.98;1.27;;;18.10;99.90;;;;;;4993110;28;20518;-88
2022/07/23 09:04:47;;;;;;;2.50;1.30;;;18.20;99.90;;;;;;4993373;28;20042;-88
2022/07/23 09:07:13;;;;;;;5.43;1.27;;;18.20;99.90;;;;;;5010116;28;20038;-88
2022/07/23 09:09:39;;;;;;;1.23;1.05;;;18.50;99.90;;;;;;5010015;28;20046;-88
2022/07/23 09:12:09;;;;;;;1.92;1.17;;;18.70;99.90;;;;;;5009526;28;20046;-88
2022/07/23 09:14:43;;;;;;;2.58;1.70;;;18.70;99.90;;;;;;4992591;28;20042;-88
2022/07/23 09:17:18;;;;;;;2.13;1.45;;;18.50;99.90;;;;;;4994143;28;20214;-88
2022/07/23 09:19:45;;;;;;;1.10;1.00;;;18.60;99.90;;;;;;4993200;28;20042;-87
2022/07/23 09:22:18;;;;;;;3.15;1.95;;;18.80;99.90;;;;;;4993321;28;20042;-87
2022/07/23 09:25:06;;;;;;;0.90;0.80;;;19.10;99.90;;;;;;5011962;28;20499;-87
2022/07/23 09:27:53;;;;;;;0.95;0.73;;;19.20;99.90;;;;;;5030947;28;20524;-87
2022/07/23 09:30:26;;;;;;;2.92;1.00;;;19.40;99.90;;;;;;5011150;28;20048;-88
2022/07/23 09:33:08;;;;;;;1.60;1.20;;;19.40;99.90;;;;;;5012766;28;20041;-88
2022/07/23 09:35:45;;;;;;;1.45;0.88;;;19.20;99.90;;;;;;4996335;28;20034;-88
2022/07/23 09:38:12;;;;;;;1.38;1.10;;;18.90;99.90;;;;;;4998547;28;20045;-87
2022/07/23 09:40:37;;;;;;;4.45;1.20;;;18.70;99.90;;;;;;5016073;28;20979;-87
2022/07/23 09:43:03;;;;;;;1.42;0.95;;;18.60;99.90;;;;;;4997077;28;20095;-87
2022/07/23 09:45:29;;;;;;;0.98;0.90;;;18.60;99.90;;;;;;4996835;28;20396;-88
2022/07/23 09:48:14;;;;;;;2.42;1.10;;;18.80;99.90;;;;;;5029269;28;20184;-88
2022/07/23 09:50:41;;;;;;;3.08;1.10;;;19.10;99.90;;;;;;4996391;28;20091;-87
2022/07/23 09:53:07;;;;;;;3.60;1.00;;;19.40;99.90;;;;;;4996738;28;20044;-87
2022/07/23 09:55:38;;;;;;;1.60;1.00;;;19.40;99.90;;;;;;4995793;28;20037;-88
2022/07/23 09:58:08;;;;;;;1.05;0.90;;;19.70;99.90;;;;;;5013119;28;20049;-88
2022/07/23 10:00:35;;;;;;;1.95;1.05;;;19.90;99.90;;;;;;5020626;28;20041;-89
2022/07/23 10:03:02;;;;;;;2.85;1.00;;;19.70;99.90;;;;;;5005238;28;20038;-88
2022/07/23 10:05:30;;;;;;;2.00;1.10;;;19.50;99.90;;;;;;5026323;28;20052;-88
2022/07/23 10:07:57;;;;;;;2.45;0.93;;;19.40;99.90;;;;;;5032962;28;20041;-89
2022/07/23 10:10:27;;;;;;;1.73;0.93;;;19.50;99.90;;;;;;5024325;28;20045;-88
2022/07/23 10:15:25;;;;;;;2.03;1.00;;;20.00;99.90;;;;;;5024602;28;20064;-88
2022/07/23 10:17:50;;;;;;;0.80;0.80;;;20.10;99.90;;;;;;5025817;28;20049;-89
2022/07/23 10:20:16;;;;;;;2.80;1.10;;;20.30;99.90;;;;;;5010694;28;20048;-88
2022/07/23 10:22:54;;;;;;;1.60;0.88;;;20.30;99.90;;;;;;5012451;28;20033;-87
2022/07/23 10:25:32;;;;;;;3.58;1.20;;;20.30;99.90;;;;;;5010859;28;20053;-89
2022/07/23 10:28:32;;;;;;;1.95;0.80;;;20.20;99.70;;;;;;5008616;28;20038;-91
2022/07/23 10:31:26;;;;;;;1.02;1.00;;;20.50;99.90;;;;;;5008703;28;20045;-81
2022/07/23 10:34:16;;;;;;;2.65;1.10;;;20.80;99.90;;;;;;5031848;28;20108;-80
2022/07/23 10:37:01;;;;;;;1.27;0.75;;;21.10;99.90;;;;;;5023674;28;20112;-84
2022/07/23 10:39:33;;;;;;;2.30;1.00;;;21.30;99.80;;;;;;5008860;28;20041;-83
2022/07/23 10:42:13;;;;;;;3.10;1.00;;;21.40;99.90;;;;;;4991853;28;20077;-80
2022/07/23 10:44:42;;;;;;;1.40;1.05;;;21.40;99.30;;;;;;5018197;28;20116;-83
2022/07/23 10:49:34;;;;;;;5.13;1.00;;;21.70;98.80;;;;;;5007406;28;20045;-80
2022/07/23 10:52:21;;;;;;;2.05;0.95;;;21.70;98.40;;;;;;5014877;28;20045;-79
2022/07/23 10:54:57;;;;;;;1.65;1.23;;;21.60;98.00;;;;;;5004904;28;20046;-80
2022/07/23 10:57:29;;;;;;;1.80;1.10;;;21.30;98.10;;;;;;5011763;28;20131;-88
2022/07/23 11:00:05;;;;;;;2.97;1.40;;;21.30;98.60;;;;;;5004557;28;20077;-95
2022/07/23 11:02:43;;;;;;;3.83;1.30;;;21.30;98.30;;;;;;5013342;28;20107;-93
2022/07/23 11:05:11;;;;;;;4.20;1.88;;;21.20;98.10;;;;;;4996518;28;20042;-94
2022/07/23 11:08:05;;;;;;;1.58;1.20;;;21.10;98.10;;;;;;5023802;28;20621;-94
2022/07/23 11:10:40;;;;;;;2.00;1.10;;;21.10;98.00;;;;;;5008097;28;20057;-94
2022/07/23 11:13:21;;;;;;;1.60;1.13;;;21.20;98.10;;;;;;5012483;28;20041;-94
2022/07/23 11:16:04;;;;;;;2.40;1.08;;;21.10;97.60;;;;;;5019066;28;20043;-95
2022/07/23 11:18:47;;;;;;;2.28;1.13;;;21.00;98.00;;;;;;5013389;28;20053;-95
2022/07/23 11:24:20;;;;;;;3.85;1.20;;;21.20;98.00;;;;;;5014862;28;20129;-96
2022/07/23 11:26:54;;;;;;;1.20;0.97;;;21.40;98.10;;;;;;5015829;28;20054;-96
2022/07/23 11:29:30;;;;;;;3.05;1.20;;;21.50;97.80;;;;;;5003275;28;20037;-95
2022/07/23 11:31:57;;;;;;;2.65;1.00;;;21.60;97.70;;;;;;5014240;28;20076;-94
2022/07/23 11:34:38;;;;;;;1.20;0.90;;;21.60;97.80;;;;;;5026388;28;20046;-94
2022/07/23 11:37:05;;;;;;;1.15;1.05;;;21.80;97.70;;;;;;5003060;28;20386;-94
2022/07/23 11:39:32;;;;;;;2.05;1.30;;;22.10;97.90;;;;;;5016426;28;20044;-94
2022/07/23 11:42:45;;;;;;;1.92;1.60;;;22.10;97.20;;;;;;5003012;28;20037;-96
2022/07/23 11:49:02;;;;;;;1.50;1.40;;;22.00;97.30;;;;;;5018523;28;20068;-95
2022/07/23 11:55:09;;;;;;;2.60;1.73;;;22.00;97.50;;;;;;5020580;28;20119;-94
2022/07/23 11:57:45;;;;;;;1.52;1.33;;;22.30;97.00;;;;;;5014399;28;20220;-96
2022/07/23 12:00:16;;;;;;;2.92;1.30;;;22.40;97.10;;;;;;5000694;28;20042;-96
2022/07/23 12:02:45;;;;;;;2.95;1.40;;;22.10;96.80;;;;;;5002455;28;20061;-95
2022/07/23 12:05:24;;;;;;;2.35;1.00;;;22.00;96.80;;;;;;4979566;28;20050;-96
2022/07/23 12:07:54;;;;;;;1.70;1.50;;;21.90;96.70;;;;;;4985838;28;20034;-95
2022/07/23 12:10:27;;;;;;;1.60;1.50;;;21.90;97.40;;;;;;4968690;28;20049;-95
2022/07/23 12:13:13;;;;;;;2.35;1.30;;;21.90;97.70;;;;;;4990937;28;20037;-94
2022/07/23 12:15:42;;;;;;;1.30;1.20;;;22.00;96.80;;;;;;4999610;28;20420;-93
2022/07/23 12:18:11;;;;;;;1.98;1.50;;;22.00;97.70;;;;;;4987642;28;20133;-94
2022/07/23 12:20:42;;;;;;;2.95;1.55;;;22.00;97.40;;;;;;4985734;28;20050;-91
2022/07/23 12:23:09;;;;;;;2.77;1.80;;;21.90;97.10;;;;;;4995291;28;20467;-93
2022/07/23 12:25:38;;;;;;;3.15;1.40;;;21.90;97.50;;;;;;4989520;28;20046;-91
2022/07/23 12:28:08;;;;;;;3.13;1.88;;;21.80;97.30;;;;;;4986353;28;20049;-93
2022/07/23 12:30:39;;;;;;;2.20;1.42;;;21.90;97.40;;;;;;4988696;28;20045;-93
2022/07/23 12:33:06;;;;;;;3.67;1.80;;;21.80;97.40;;;;;;4996420;28;20103;-92
2022/07/23 12:35:41;;;;;;;3.08;1.50;;;21.70;97.40;;;;;;5013283;28;20080;-91
2022/07/23 12:38:10;;;;;;;1.98;1.55;;;21.70;97.40;;;;;;5012536;28;20131;-92
2022/07/23 12:40:41;;;;;;;1.63;1.52;;;21.50;97.60;;;;;;4993420;28;20125;-87
2022/07/23 12:43:09;;;;;;;1.83;1.50;;;21.60;98.10;;;;;;5001685;28;20479;-87
2022/07/23 12:45:43;;;;;;;3.00;1.90;;;21.70;97.80;;;;;;5010219;28;20042;-87
2022/07/23 12:48:19;;;;;;;2.03;1.50;;;21.80;98.00;;;;;;5024901;28;20038;-86
2022/07/23 12:51:06;;;;;;;6.90;1.90;;;22.10;97.90;;;;;;5019585;28;20030;-86
2022/07/23 12:53:41;;;;;;;1.92;1.83;;;22.20;97.10;;;;;;5013957;28;20115;-87
2022/07/23 12:56:14;;;;;;;2.83;2.03;;;22.10;97.30;;;;;;5007456;28;20091;-87
2022/07/23 12:58:50;;;;;;;2.15;1.70;;;22.10;97.20;;;;;;4991760;28;20539;-86
2022/07/23 13:01:23;;;;;;;3.33;1.90;;;22.00;97.00;;;;;;5010314;28;20076;-87
2022/07/23 13:03:56;;;;;;;1.90;1.60;;;21.90;97.20;;;;;;4993527;28;20727;-87
2022/07/23 13:06:22;;;;;;;3.38;1.85;;;21.80;97.10;;;;;;5028256;28;20042;-87